sensor_id;sensor_type;location;lat;lon;timestamp;pressure;altitude;pressure_sealevel;temperature;humidity
20019;BME280;10170;42.502;26.526;2023-04-08T00:00:09;100088.34;;;6.01;100.00
20019;BME280;10170;42.502;26.526;2023-04-08T00:02:36;100097.91;;;6.10;100.00
20019;BME280;10170;42.502;26.526;2023-04-08T00:05:03;100100.88;;;6.15;100.00
20019;BME280;10170;42.502;26.526;2023-04-08T00:07:30;100088.53;;;6.07;100.00
20019;BME280;10170;42.502;26.526;2023-04-08T00:09:57;100083.22;;;6.15;100.00
20019;BME280;10170;42.502;26.526;2023-04-08T00:12:24;100088.53;;;6.07;100.00
20019;BME280;10170;42.502;26.526;2023-04-08T00:14:50;100084.22;;;6.06;100.00
20019;BME280;10170;42.502;26.526;2023-04-08T00:17:17;100076.81;;;6.02;100.00
20019;BME280;10170;42.502;26.526;2023-04-08T00:19:44;100086.56;;;6.01;100.00
20019;BME280;10170;42.502;26.526;2023-04-08T00:22:10;100080.44;;;5.85;100.00
20019;BME280;10170;42.502;26.526;2023-04-08T00:24:37;100081.44;;;5.84;100.00
20019;BME280;10170;42.502;26.526;2023-04-08T00:27:05;100078.94;;;5.82;100.00
20019;BME280;10170;42.502;26.526;2023-04-08T00:29:32;100091.31;;;5.90;100.00
20019;BME280;10170;42.502;26.526;2023-04-08T00:31:59;100086.56;;;5.85;100.00
20019;BME280;10170;42.502;26.526;2023-04-08T00:34:26;100087.06;;;5.97;100.00
20019;BME280;10170;42.502;26.526;2023-04-08T00:36:52;100086.88;;;5.90;100.00
20019;BME280;10170;42.502;26.526;2023-04-08T00:39:19;100085.72;;;5.85;100.00
20019;BME280;10170;42.502;26.526;2023-04-08T00:41:46;100076.16;;;5.84;100.00
20019;BME280;10170;42.502;26.526;2023-04-08T00:44:13;100077.63;;;5.78;100.00
20019;BME280;10170;42.502;26.526;2023-04-08T00:46:39;100065.06;;;5.72;100.00
20019;BME280;10170;42.502;26.526;2023-04-08T00:49:07;100069.72;;;5.78;100.00
20019;BME280;10170;42.502;26.526;2023-04-08T00:51:33;100075.31;;;5.75;100.00
20019;BME280;10170;42.502;26.526;2023-04-08T00:54:04;100075.84;;;5.87;100.00
20019;BME280;10170;42.502;26.526;2023-04-08T00:56:32;100073.66;;;5.82;100.00
20019;BME280;10170;42.502;26.526;2023-04-08T00:59:00;100070.72;;;5.85;100.00
20019;BME280;10170;42.502;26.526;2023-04-08T01:01:50;100067.06;;;5.78;100.00
20019;BME280;10170;42.502;26.526;2023-04-08T01:04:43;100073.84;;;5.89;100.00
20019;BME280;10170;42.502;26.526;2023-04-08T01:07:17;100074.19;;;5.94;100.00
20019;BME280;10170;42.502;26.526;2023-04-08T01:09:47;100074.19;;;5.94;100.00
20019;BME280;10170;42.502;26.526;2023-04-08T01:12:20;100078.00;;;5.91;100.00
20019;BME280;10170;42.502;26.526;2023-04-08T01:14:50;100070.72;;;5.93;100.00
20019;BME280;10170;42.502;26.526;2023-04-08T01:17:18;100068.09;;;5.85;100.00
20019;BME280;10170;42.502;26.526;2023-04-08T01:19:48;100067.25;;;5.93;100.00
20019;BME280;10170;42.502;26.526;2023-04-08T01:25:23;100066.41;;;5.76;100.00
20019;BME280;10170;42.502;26.526;2023-04-08T01:27:52;100058.63;;;5.67;100.00
20019;BME280;10170;42.502;26.526;2023-04-08T01:30:24;100057.34;;;5.71;100.00
20019;BME280;10170;42.502;26.526;2023-04-08T01:32:54;100070.03;;;5.67;100.00
20019;BME280;10170;42.502;26.526;2023-04-08T01:35:22;100063.75;;;5.60;100.00
20019;BME280;10170;42.502;26.526;2023-04-08T01:37:52;100070.69;;;5.77;100.00
20019;BME280;10170;42.502;26.526;2023-04-08T01:40:19;100078.94;;;5.66;100.00
20019;BME280;10170;42.502;26.526;2023-04-08T01:42:47;100077.78;;;5.61;100.00
20019;BME280;10170;42.502;26.526;2023-04-08T01:45:15;100076.63;;;5.55;100.00
20019;BME280;10170;42.502;26.526;2023-04-08T01:47:44;100082.06;;;5.62;100.00
20019;BME280;10170;42.502;26.526;2023-04-08T01:50:15;100076.91;;;5.52;100.00
20019;BME280;10170;42.502;26.526;2023-04-08T01:52:43;100090.31;;;5.59;100.00
20019;BME280;10170;42.502;26.526;2023-04-08T01:55:10;100072.81;;;5.50;100.00
20019;BME280;10170;42.502;26.526;2023-04-08T01:57:38;100085.34;;;5.64;100.00
20019;BME280;10170;42.502;26.526;2023-04-08T02:00:11;100088.47;;;5.51;100.00
20019;BME280;10170;42.502;26.526;2023-04-08T02:02:40;100091.78;;;5.61;100.00
20019;BME280;10170;42.502;26.526;2023-04-08T02:05:08;100100.19;;;5.57;100.00
20019;BME280;10170;42.502;26.526;2023-04-08T02:07:35;100099.34;;;5.56;100.00
20019;BME280;10170;42.502;26.526;2023-04-08T02:10:02;100101.00;;;5.41;100.00
20019;BME280;10170;42.502;26.526;2023-04-08T02:12:30;100097.06;;;5.53;100.00
20019;BME280;10170;42.502;26.526;2023-04-08T02:14:58;100091.88;;;5.19;100.00
20019;BME280;10170;42.502;26.526;2023-04-08T02:20:15;100097.94;;;5.20;100.00
20019;BME280;10170;42.502;26.526;2023-04-08T02:25:22;100099.44;;;5.22;100.00
20019;BME280;10170;42.502;26.526;2023-04-08T02:27:51;100096.84;;;5.30;100.00
20019;BME280;10170;42.502;26.526;2023-04-08T02:30:18;100097.84;;;5.38;100.00
20019;BME280;10170;42.502;26.526;2023-04-08T02:32:46;100096.69;;;5.32;100.00
20019;BME280;10170;42.502;26.526;2023-04-08T02:35:13;100105.25;;;5.34;100.00
20019;BME280;10170;42.502;26.526;2023-04-08T02:37:41;100105.25;;;5.34;100.00
20019;BME280;10170;42.502;26.526;2023-04-08T02:40:25;100098.00;;;5.36;100.00
20019;BME280;10170;42.502;26.526;2023-04-08T02:42:53;100103.75;;;5.39;100.00
20019;BME280;10170;42.502;26.526;2023-04-08T02:45:20;100108.53;;;5.36;100.00
20019;BME280;10170;42.502;26.526;2023-04-08T02:47:47;100105.44;;;5.41;100.00
20019;BME280;10170;42.502;26.526;2023-04-08T02:50:14;100102.00;;;5.48;100.00
20019;BME280;10170;42.502;26.526;2023-04-08T02:52:41;100101.81;;;5.50;100.00
20019;BME280;10170;42.502;26.526;2023-04-08T02:55:09;100117.16;;;5.54;100.00
20019;BME280;10170;42.502;26.526;2023-04-08T02:57:38;100115.69;;;5.52;100.00
20019;BME280;10170;42.502;26.526;2023-04-08T03:00:05;100119.44;;;5.49;100.00
20019;BME280;10170;42.502;26.526;2023-04-08T03:02:32;100109.56;;;5.43;100.00
20019;BME280;10170;42.502;26.526;2023-04-08T03:05:00;100096.66;;;5.24;100.00
20019;BME280;10170;42.502;26.526;2023-04-08T03:07:27;100113.31;;;5.32;100.00
20019;BME280;10170;42.502;26.526;2023-04-08T03:09:53;100108.69;;;5.34;100.00
20019;BME280;10170;42.502;26.526;2023-04-08T03:12:21;100107.22;;;5.40;100.00
20019;BME280;10170;42.502;26.526;2023-04-08T03:14:49;100101.00;;;5.41;100.00
20019;BME280;10170;42.502;26.526;2023-04-08T03:17:16;100103.25;;;5.36;100.00
20019;BME280;10170;42.502;26.526;2023-04-08T03:19:42;100104.63;;;5.48;100.00
20019;BME280;10170;42.502;26.526;2023-04-08T03:22:09;100117.31;;;5.53;100.00
20019;BME280;10170;42.502;26.526;2023-04-08T03:24:36;100118.47;;;5.50;100.00
20019;BME280;10170;42.502;26.526;2023-04-08T03:27:03;100118.94;;;5.46;100.00
20019;BME280;10170;42.502;26.526;2023-04-08T03:29:29;100110.72;;;5.41;100.00
20019;BME280;10170;42.502;26.526;2023-04-08T03:31:56;100117.94;;;5.38;100.00
20019;BME280;10170;42.502;26.526;2023-04-08T03:34:23;100119.28;;;5.43;100.00
20019;BME280;10170;42.502;26.526;2023-04-08T03:36:50;100127.22;;;5.59;100.00
20019;BME280;10170;42.502;26.526;2023-04-08T03:39:16;100132.16;;;5.62;100.00
20019;BME280;10170;42.502;26.526;2023-04-08T03:41:43;100118.44;;;5.42;100.00
20019;BME280;10170;42.502;26.526;2023-04-08T03:44:10;100142.22;;;5.50;100.00
20019;BME280;10170;42.502;26.526;2023-04-08T03:46:36;100149.47;;;5.48;100.00
20019;BME280;10170;42.502;26.526;2023-04-08T03:49:03;100140.88;;;5.54;100.00
20019;BME280;10170;42.502;26.526;2023-04-08T03:51:30;100148.66;;;5.64;100.00
20019;BME280;10170;42.502;26.526;2023-04-08T03:53:57;100146.13;;;5.38;100.00
20019;BME280;10170;42.502;26.526;2023-04-08T03:56:24;100149.13;;;5.43;100.00
20019;BME280;10170;42.502;26.526;2023-04-08T03:58:51;100140.38;;;5.43;100.00
20019;BME280;10170;42.502;26.526;2023-04-08T04:01:18;100137.28;;;5.63;100.00
20019;BME280;10170;42.502;26.526;2023-04-08T04:03:44;100139.25;;;5.61;100.00
20019;BME280;10170;42.502;26.526;2023-04-08T04:06:12;100138.44;;;5.69;100.00
20019;BME280;10170;42.502;26.526;2023-04-08T04:08:38;100129.69;;;5.60;100.00
20019;BME280;10170;42.502;26.526;2023-04-08T04:11:05;100134.34;;;5.66;100.00
20019;BME280;10170;42.502;26.526;2023-04-08T04:13:32;100135.06;;;5.84;100.00
20019;BME280;10170;42.502;26.526;2023-04-08T04:15:58;100129.22;;;5.73;100.00
20019;BME280;10170;42.502;26.526;2023-04-08T04:18:25;100140.00;;;5.87;100.00
20019;BME280;10170;42.502;26.526;2023-04-08T04:20:52;100146.94;;;5.96;100.00
20019;BME280;10170;42.502;26.526;2023-04-08T04:23:19;100139.31;;;5.85;100.00
20019;BME280;10170;42.502;26.526;2023-04-08T04:25:46;100133.19;;;5.77;100.00
20019;BME280;10170;42.502;26.526;2023-04-08T04:28:13;100134.53;;;5.89;100.00
20019;BME280;10170;42.502;26.526;2023-04-08T04:30:39;100122.13;;;5.81;100.00
20019;BME280;10170;42.502;26.526;2023-04-08T04:33:06;100139.81;;;5.81;100.00
20019;BME280;10170;42.502;26.526;2023-04-08T04:35:33;100137.34;;;5.95;100.00
20019;BME280;10170;42.502;26.526;2023-04-08T04:38:00;100140.47;;;6.15;100.00
20019;BME280;10170;42.502;26.526;2023-04-08T04:40:27;100085.06;;;5.83;100.00
20019;BME280;10170;42.502;26.526;2023-04-08T04:42:54;100149.25;;;6.39;100.00
20019;BME280;10170;42.502;26.526;2023-04-08T04:45:20;100149.03;;;6.57;100.00
20019;BME280;10170;42.502;26.526;2023-04-08T04:47:47;100152.84;;;6.63;100.00
20019;BME280;10170;42.502;26.526;2023-04-08T04:50:14;100143.09;;;6.63;100.00
20019;BME280;10170;42.502;26.526;2023-04-08T04:52:41;100145.72;;;6.71;100.00
20019;BME280;10170;42.502;26.526;2023-04-08T04:55:08;100151.28;;;6.84;100.00
20019;BME280;10170;42.502;26.526;2023-04-08T04:57:34;100163.81;;;6.90;100.00
20019;BME280;10170;42.502;26.526;2023-04-08T05:00:01;100162.31;;;6.96;100.00
20019;BME280;10170;42.502;26.526;2023-04-08T05:02:31;100168.56;;;7.11;100.00
20019;BME280;10170;42.502;26.526;2023-04-08T05:04:58;100165.56;;;7.14;100.00
20019;BME280;10170;42.502;26.526;2023-04-08T05:07:24;100146.72;;;7.17;100.00
20019;BME280;10170;42.502;26.526;2023-04-08T05:09:51;100162.75;;;7.15;100.00
20019;BME280;10170;42.502;26.526;2023-04-08T05:12:18;100160.72;;;7.25;100.00
20019;BME280;10170;42.502;26.526;2023-04-08T05:14:46;100168.13;;;7.30;100.00
20019;BME280;10170;42.502;26.526;2023-04-08T05:17:13;100163.91;;;7.52;100.00
20019;BME280;10170;42.502;26.526;2023-04-08T05:19:39;100175.69;;;7.49;100.00
20019;BME280;10170;42.502;26.526;2023-04-08T05:22:06;100162.81;;;7.38;100.00
20019;BME280;10170;42.502;26.526;2023-04-08T05:24:33;100175.31;;;7.52;100.00
20019;BME280;10170;42.502;26.526;2023-04-08T05:26:59;100182.59;;;7.50;100.00
20019;BME280;10170;42.502;26.526;2023-04-08T05:29:26;100185.59;;;7.78;100.00
20019;BME280;10170;42.502;26.526;2023-04-08T05:31:53;100179.31;;;7.48;100.00
20019;BME280;10170;42.502;26.526;2023-04-08T05:34:21;100176.38;;;7.66;100.00
20019;BME280;10170;42.502;26.526;2023-04-08T05:36:49;100162.34;;;7.65;100.00
20019;BME280;10170;42.502;26.526;2023-04-08T05:39:19;100173.34;;;7.77;100.00
20019;BME280;10170;42.502;26.526;2023-04-08T05:41:45;100176.19;;;7.75;100.00
20019;BME280;10170;42.502;26.526;2023-04-08T05:44:12;100171.19;;;7.80;100.00
20019;BME280;10170;42.502;26.526;2023-04-08T05:46:39;100168.59;;;7.95;100.00
20019;BME280;10170;42.502;26.526;2023-04-08T05:49:06;100167.06;;;8.00;100.00
20019;BME280;10170;42.502;26.526;2023-04-08T05:51:33;100167.03;;;8.31;100.00
20019;BME280;10170;42.502;26.526;2023-04-08T05:54:00;100156.63;;;8.29;100.00
20019;BME280;10170;42.502;26.526;2023-04-08T05:56:27;100145.00;;;8.53;100.00
20019;BME280;10170;42.502;26.526;2023-04-08T05:58:53;100146.91;;;8.59;100.00
20019;BME280;10170;42.502;26.526;2023-04-08T06:01:20;100156.28;;;8.47;100.00
20019;BME280;10170;42.502;26.526;2023-04-08T06:03:47;100159.72;;;8.70;100.00
20019;BME280;10170;42.502;26.526;2023-04-08T06:06:14;100143.72;;;8.93;100.00
20019;BME280;10170;42.502;26.526;2023-04-08T06:08:40;100155.63;;;8.97;100.00
20019;BME280;10170;42.502;26.526;2023-04-08T06:11:07;100163.75;;;8.95;100.00
20019;BME280;10170;42.502;26.526;2023-04-08T06:13:34;100162.09;;;9.09;100.00
20019;BME280;10170;42.502;26.526;2023-04-08T06:16:15;100169.72;;;9.26;100.00
20019;BME280;10170;42.502;26.526;2023-04-08T06:18:46;100168.75;;;9.34;100.00
20019;BME280;10170;42.502;26.526;2023-04-08T06:21:13;100167.50;;;9.15;100.00
20019;BME280;10170;42.502;26.526;2023-04-08T06:23:40;100170.59;;;9.33;100.00
20019;BME280;10170;42.502;26.526;2023-04-08T06:26:07;100173.25;;;9.48;100.00
20019;BME280;10170;42.502;26.526;2023-04-08T06:28:34;100168.47;;;9.43;100.00
20019;BME280;10170;42.502;26.526;2023-04-08T06:31:00;100175.00;;;9.41;100.00
20019;BME280;10170;42.502;26.526;2023-04-08T06:33:27;100167.78;;;9.71;100.00
20019;BME280;10170;42.502;26.526;2023-04-08T06:36:04;100165.19;;;9.77;100.00
20019;BME280;10170;42.502;26.526;2023-04-08T06:38:31;100165.22;;;9.98;100.00
20019;BME280;10170;42.502;26.526;2023-04-08T06:41:05;100176.34;;;9.87;100.00
20019;BME280;10170;42.502;26.526;2023-04-08T06:43:32;100172.69;;;10.09;100.00
20019;BME280;10170;42.502;26.526;2023-04-08T06:45:59;100177.22;;;10.09;100.00
20019;BME280;10170;42.502;26.526;2023-04-08T06:48:27;100184.81;;;10.12;100.00
20019;BME280;10170;42.502;26.526;2023-04-08T06:50:55;100173.66;;;10.44;100.00
20019;BME280;10170;42.502;26.526;2023-04-08T06:53:26;100187.13;;;10.42;100.00
20019;BME280;10170;42.502;26.526;2023-04-08T06:55:58;100186.56;;;10.75;100.00
20019;BME280;10170;42.502;26.526;2023-04-08T06:58:25;100200.66;;;10.47;100.00
20019;BME280;10170;42.502;26.526;2023-04-08T07:00:53;100191.63;;;10.42;100.00
20019;BME280;10170;42.502;26.526;2023-04-08T07:03:21;100209.16;;;10.85;100.00
20019;BME280;10170;42.502;26.526;2023-04-08T07:05:48;100199.34;;;10.86;100.00
20019;BME280;10170;42.502;26.526;2023-04-08T07:08:15;100206.78;;;10.97;100.00
20019;BME280;10170;42.502;26.526;2023-04-08T07:10:42;100214.47;;;10.85;100.00
20019;BME280;10170;42.502;26.526;2023-04-08T07:13:08;100207.63;;;10.70;100.00
20019;BME280;10170;42.502;26.526;2023-04-08T07:15:36;100214.50;;;10.92;100.00
20019;BME280;10170;42.502;26.526;2023-04-08T07:18:02;100216.56;;;10.90;100.00
20019;BME280;10170;42.502;26.526;2023-04-08T07:20:31;100230.25;;;11.55;100.00
20019;BME280;10170;42.502;26.526;2023-04-08T07:23:01;100230.59;;;11.73;100.00
20019;BME280;10170;42.502;26.526;2023-04-08T07:25:27;100234.19;;;12.06;100.00
20019;BME280;10170;42.502;26.526;2023-04-08T07:27:54;100226.69;;;12.49;100.00
20019;BME280;10170;42.502;26.526;2023-04-08T07:30:22;100213.25;;;12.03;100.00
20019;BME280;10170;42.502;26.526;2023-04-08T07:32:48;100217.66;;;12.50;100.00
20019;BME280;10170;42.502;26.526;2023-04-08T07:35:15;100234.66;;;12.29;100.00
20019;BME280;10170;42.502;26.526;2023-04-08T07:37:49;100225.66;;;12.69;100.00
20019;BME280;10170;42.502;26.526;2023-04-08T07:40:19;100223.59;;;12.58;100.00
20019;BME280;10170;42.502;26.526;2023-04-08T07:42:46;100219.44;;;13.34;100.00
20019;BME280;10170;42.502;26.526;2023-04-08T07:45:12;100226.16;;;13.63;100.00
20019;BME280;10170;42.502;26.526;2023-04-08T07:47:39;100219.03;;;13.88;100.00
20019;BME280;10170;42.502;26.526;2023-04-08T07:50:06;100212.81;;;13.50;100.00
20019;BME280;10170;42.502;26.526;2023-04-08T07:52:33;100224.44;;;13.75;100.00
20019;BME280;10170;42.502;26.526;2023-04-08T07:55:00;100231.13;;;13.97;100.00
20019;BME280;10170;42.502;26.526;2023-04-08T07:57:27;100232.28;;;13.77;100.00
20019;BME280;10170;42.502;26.526;2023-04-08T07:59:54;100240.41;;;13.31;100.00
20019;BME280;10170;42.502;26.526;2023-04-08T08:02:21;100234.72;;;12.82;100.00
20019;BME280;10170;42.502;26.526;2023-04-08T08:04:48;100235.31;;;12.77;100.00
20019;BME280;10170;42.502;26.526;2023-04-08T08:07:15;100232.66;;;12.90;100.00
20019;BME280;10170;42.502;26.526;2023-04-08T08:09:42;100228.28;;;13.48;100.00
20019;BME280;10170;42.502;26.526;2023-04-08T08:12:08;100225.44;;;13.81;100.00
20019;BME280;10170;42.502;26.526;2023-04-08T08:14:35;100231.31;;;14.40;100.00
20019;BME280;10170;42.502;26.526;2023-04-08T08:17:02;100222.06;;;14.42;100.00
20019;BME280;10170;42.502;26.526;2023-04-08T08:19:29;100236.56;;;14.28;100.00
20019;BME280;10170;42.502;26.526;2023-04-08T08:21:56;100233.75;;;14.10;100.00
20019;BME280;10170;42.502;26.526;2023-04-08T08:24:23;100233.63;;;14.36;100.00
20019;BME280;10170;42.502;26.526;2023-04-08T08:26:51;100237.50;;;14.40;100.00
20019;BME280;10170;42.502;26.526;2023-04-08T08:29:18;100239.16;;;13.40;100.00
20019;BME280;10170;42.502;26.526;2023-04-08T08:31:44;100232.03;;;13.21;100.00
20019;BME280;10170;42.502;26.526;2023-04-08T08:34:11;100223.38;;;13.12;100.00
20019;BME280;10170;42.502;26.526;2023-04-08T08:36:38;100217.81;;;13.91;100.00
20019;BME280;10170;42.502;26.526;2023-04-08T08:39:05;100231.91;;;14.04;100.00
20019;BME280;10170;42.502;26.526;2023-04-08T08:41:33;100219.47;;;13.85;100.00
20019;BME280;10170;42.502;26.526;2023-04-08T08:44:03;100223.16;;;13.91;100.00
20019;BME280;10170;42.502;26.526;2023-04-08T08:46:30;100218.38;;;13.99;100.00
20019;BME280;10170;42.502;26.526;2023-04-08T08:48:57;100221.41;;;13.65;100.00
20019;BME280;10170;42.502;26.526;2023-04-08T08:51:24;100217.34;;;14.00;100.00
20019;BME280;10170;42.502;26.526;2023-04-08T08:53:53;100210.59;;;14.35;100.00
20019;BME280;10170;42.502;26.526;2023-04-08T08:56:20;100209.31;;;14.38;100.00
20019;BME280;10170;42.502;26.526;2023-04-08T08:58:47;100204.00;;;13.94;94.39
20019;BME280;10170;42.502;26.526;2023-04-08T09:01:33;100204.06;;;14.81;93.70
20019;BME280;10170;42.502;26.526;2023-04-08T09:04:16;100213.38;;;14.96;88.09
20019;BME280;10170;42.502;26.526;2023-04-08T09:06:47;100204.94;;;13.68;91.84
20019;BME280;10170;42.502;26.526;2023-04-08T09:09:16;100212.13;;;14.12;92.06
20019;BME280;10170;42.502;26.526;2023-04-08T09:11:45;100208.97;;;13.90;100.00
20019;BME280;10170;42.502;26.526;2023-04-08T09:14:24;100212.91;;;15.06;100.00
20019;BME280;10170;42.502;26.526;2023-04-08T09:16:52;100205.91;;;14.80;100.00
20019;BME280;10170;42.502;26.526;2023-04-08T09:19:19;100204.28;;;15.22;93.67
20019;BME280;10170;42.502;26.526;2023-04-08T09:22:07;100200.72;;;14.85;91.23
20019;BME280;10170;42.502;26.526;2023-04-08T09:24:35;100190.78;;;16.12;91.18
20019;BME280;10170;42.502;26.526;2023-04-08T09:27:03;100204.00;;;16.55;81.40
20019;BME280;10170;42.502;26.526;2023-04-08T09:29:30;100201.06;;;15.86;80.06
20019;BME280;10170;42.502;26.526;2023-04-08T09:32:01;100199.50;;;16.78;78.44
20019;BME280;10170;42.502;26.526;2023-04-08T09:34:29;100205.09;;;17.00;72.08
20019;BME280;10170;42.502;26.526;2023-04-08T09:36:59;100204.56;;;16.45;69.06
20019;BME280;10170;42.502;26.526;2023-04-08T09:39:26;100204.84;;;15.96;69.16
20019;BME280;10170;42.502;26.526;2023-04-08T09:41:55;100195.19;;;15.95;70.03
20019;BME280;10170;42.502;26.526;2023-04-08T09:44:25;100197.25;;;16.52;69.87
20019;BME280;10170;42.502;26.526;2023-04-08T09:47:23;100205.22;;;16.82;65.77
20019;BME280;10170;42.502;26.526;2023-04-08T09:50:00;100191.78;;;15.34;69.97
20019;BME280;10170;42.502;26.526;2023-04-08T09:52:32;100196.13;;;14.92;71.02
20019;BME280;10170;42.502;26.526;2023-04-08T10:00:14;100199.97;;;15.75;65.92
20019;BME280;10170;42.502;26.526;2023-04-08T10:03:13;100193.16;;;16.20;67.22
20019;BME280;10170;42.502;26.526;2023-04-08T10:05:45;100197.19;;;16.41;67.79
20019;BME280;10170;42.502;26.526;2023-04-08T10:08:12;100194.81;;;16.62;67.00
20019;BME280;10170;42.502;26.526;2023-04-08T10:10:41;100193.41;;;15.35;70.06
20019;BME280;10170;42.502;26.526;2023-04-08T10:13:08;100188.53;;;14.89;68.06
20019;BME280;10170;42.502;26.526;2023-04-08T10:15:36;100181.69;;;15.54;69.93
20019;BME280;10170;42.502;26.526;2023-04-08T10:23:15;100180.66;;;18.32;63.29
20019;BME280;10170;42.502;26.526;2023-04-08T10:25:46;100178.63;;;18.23;60.55
20019;BME280;10170;42.502;26.526;2023-04-08T10:30:45;100175.00;;;17.72;61.83
20019;BME280;10170;42.502;26.526;2023-04-08T10:33:14;100174.50;;;16.78;63.15
20019;BME280;10170;42.502;26.526;2023-04-08T10:35:45;100178.91;;;16.49;63.59
20019;BME280;10170;42.502;26.526;2023-04-08T10:38:14;100176.09;;;17.88;64.85
20019;BME280;10170;42.502;26.526;2023-04-08T10:40:42;100166.59;;;18.58;58.86
20019;BME280;10170;42.502;26.526;2023-04-08T10:43:13;100158.28;;;17.59;61.70
20019;BME280;10170;42.502;26.526;2023-04-08T10:45:41;100162.84;;;18.92;57.50
20019;BME280;10170;42.502;26.526;2023-04-08T10:48:18;100166.13;;;20.03;53.17
20019;BME280;10170;42.502;26.526;2023-04-08T10:50:54;100159.91;;;19.54;52.33
20019;BME280;10170;42.502;26.526;2023-04-08T10:53:35;100158.28;;;20.28;49.45
20019;BME280;10170;42.502;26.526;2023-04-08T10:56:07;100158.78;;;19.71;50.20
20019;BME280;10170;42.502;26.526;2023-04-08T10:58:34;100151.78;;;19.11;53.11
20019;BME280;10170;42.502;26.526;2023-04-08T11:01:05;100154.88;;;19.62;50.88
20019;BME280;10170;42.502;26.526;2023-04-08T11:03:34;100151.00;;;19.15;54.46
20019;BME280;10170;42.502;26.526;2023-04-08T11:06:03;100142.09;;;19.53;55.14
20019;BME280;10170;42.502;26.526;2023-04-08T11:08:33;100146.19;;;19.34;54.87
20019;BME280;10170;42.502;26.526;2023-04-08T11:11:00;100135.09;;;19.78;49.44
20019;BME280;10170;42.502;26.526;2023-04-08T11:13:27;100144.06;;;19.84;49.05
20019;BME280;10170;42.502;26.526;2023-04-08T11:15:58;100134.03;;;18.43;52.55
20019;BME280;10170;42.502;26.526;2023-04-08T11:18:25;100123.97;;;17.38;53.82
20019;BME280;10170;42.502;26.526;2023-04-08T11:20:53;100141.19;;;16.91;53.93
20019;BME280;10170;42.502;26.526;2023-04-08T11:23:20;100137.38;;;16.63;54.74
20019;BME280;10170;42.502;26.526;2023-04-08T11:25:48;100137.13;;;16.88;54.82
20019;BME280;10170;42.502;26.526;2023-04-08T11:28:16;100121.72;;;16.60;55.50
20019;BME280;10170;42.502;26.526;2023-04-08T11:30:43;100127.22;;;16.13;57.74
20019;BME280;10170;42.502;26.526;2023-04-08T11:33:12;100123.25;;;16.15;57.77
20019;BME280;10170;42.502;26.526;2023-04-08T11:35:40;100106.31;;;16.67;59.12
20019;BME280;10170;42.502;26.526;2023-04-08T11:38:08;100111.13;;;17.28;55.31
20019;BME280;10170;42.502;26.526;2023-04-08T11:40:35;100105.69;;;17.51;55.01
20019;BME280;10170;42.502;26.526;2023-04-08T11:43:09;100107.97;;;17.71;55.92
20019;BME280;10170;42.502;26.526;2023-04-08T11:45:40;100100.84;;;17.25;57.51
20019;BME280;10170;42.502;26.526;2023-04-08T11:48:11;100106.06;;;16.92;56.72
20019;BME280;10170;42.502;26.526;2023-04-08T11:50:40;100099.84;;;16.45;58.38
20019;BME280;10170;42.502;26.526;2023-04-08T11:55:45;100101.38;;;14.93;60.96
20019;BME280;10170;42.502;26.526;2023-04-08T11:58:13;100094.22;;;15.05;62.19
20019;BME280;10170;42.502;26.526;2023-04-08T12:00:40;100085.41;;;15.34;61.51
20019;BME280;10170;42.502;26.526;2023-04-08T12:03:08;100098.22;;;15.14;61.83
20019;BME280;10170;42.502;26.526;2023-04-08T12:05:36;100094.13;;;14.33;63.54
20019;BME280;10170;42.502;26.526;2023-04-08T12:08:03;100093.06;;;14.58;63.97
20019;BME280;10170;42.502;26.526;2023-04-08T12:10:29;100087.38;;;14.48;64.66
20019;BME280;10170;42.502;26.526;2023-04-08T12:12:56;100085.78;;;14.65;65.25
20019;BME280;10170;42.502;26.526;2023-04-08T12:15:23;100081.78;;;14.74;65.63
20019;BME280;10170;42.502;26.526;2023-04-08T12:17:50;100090.50;;;14.45;66.72
20019;BME280;10170;42.502;26.526;2023-04-08T12:20:16;100088.16;;;14.55;67.15
20019;BME280;10170;42.502;26.526;2023-04-08T12:22:44;100084.75;;;14.17;68.57
20019;BME280;10170;42.502;26.526;2023-04-08T12:25:11;100081.69;;;14.14;69.48
20019;BME280;10170;42.502;26.526;2023-04-08T12:27:37;100081.34;;;14.35;70.20
20019;BME280;10170;42.502;26.526;2023-04-08T12:30:05;100077.94;;;14.46;71.01
20019;BME280;10170;42.502;26.526;2023-04-08T12:32:31;100075.72;;;14.43;70.97
20019;BME280;10170;42.502;26.526;2023-04-08T12:34:59;100081.72;;;14.38;71.53
20019;BME280;10170;42.502;26.526;2023-04-08T12:37:25;100083.47;;;14.26;74.32
20019;BME280;10170;42.502;26.526;2023-04-08T12:39:53;100087.38;;;14.24;75.76
20019;BME280;10170;42.502;26.526;2023-04-08T12:42:19;100087.38;;;13.99;75.30
20019;BME280;10170;42.502;26.526;2023-04-08T12:44:46;100092.66;;;14.06;74.84
20019;BME280;10170;42.502;26.526;2023-04-08T12:47:13;100088.22;;;13.93;77.16
20019;BME280;10170;42.502;26.526;2023-04-08T12:49:40;100080.94;;;14.07;78.05
20019;BME280;10170;42.502;26.526;2023-04-08T12:52:09;100075.66;;;14.25;81.18
20019;BME280;10170;42.502;26.526;2023-04-08T12:54:36;100088.00;;;13.95;85.55
20019;BME280;10170;42.502;26.526;2023-04-08T12:57:02;100078.88;;;13.77;87.20
20019;BME280;10170;42.502;26.526;2023-04-08T12:59:29;100080.03;;;13.88;89.32
20019;BME280;10170;42.502;26.526;2023-04-08T13:01:57;100082.97;;;13.80;89.44
20019;BME280;10170;42.502;26.526;2023-04-08T13:04:24;100081.66;;;13.58;91.02
20019;BME280;10170;42.502;26.526;2023-04-08T13:06:51;100074.44;;;13.65;93.01